createdAt,value
2022-12-31T00:02:04.900Z,38.35
2022-12-31T00:08:07.013Z,39.53
2022-12-31T00:14:09.095Z,38.15
2022-12-31T00:20:11.732Z,37.50
2022-12-31T00:32:17.301Z,35.83
2022-12-31T00:38:19.353Z,38.70
2022-12-31T00:44:21.520Z,39.30
2022-12-31T00:50:23.773Z,39.00
2022-12-31T00:56:28.515Z,38.00
2022-12-31T01:02:31.042Z,40.67
2022-12-31T01:08:33.551Z,44.33
2022-12-31T01:14:35.722Z,39.22
2022-12-31T01:20:40.240Z,40.75
2022-12-31T01:26:42.707Z,39.40
2022-12-31T01:32:44.992Z,39.75
2022-12-31T01:38:47.303Z,43.03
2022-12-31T01:44:55.492Z,43.70
2022-12-31T01:50:57.730Z,44.28
2022-12-31T01:56:59.857Z,46.70
2022-12-31T02:03:03.523Z,42.20
2022-12-31T02:09:05.819Z,44.45
2022-12-31T02:15:08.538Z,42.22
2022-12-31T02:28:00.728Z,45.88
2022-12-31T02:34:20.087Z,44.70
2022-12-31T02:40:23.605Z,44.60
2022-12-31T02:46:42.434Z,45.38
2022-12-31T02:52:56.445Z,43.80
2022-12-31T02:59:21.693Z,41.88
2022-12-31T03:05:28.519Z,43.92
2022-12-31T03:11:59.777Z,45.75
2022-12-31T03:18:19.233Z,43.75
2022-12-31T03:24:42.040Z,43.58
2022-12-31T03:30:47.246Z,42.30
2022-12-31T03:36:49.280Z,42.50
2022-12-31T03:42:51.366Z,30.80
2022-12-31T03:48:53.534Z,43.67
2022-12-31T03:54:55.836Z,42.63
2022-12-31T04:00:58.230Z,41.17
2022-12-31T04:07:00.520Z,41.78
2022-12-31T04:13:04.942Z,42.30
2022-12-31T04:19:08.061Z,40.08
2022-12-31T04:25:11.731Z,42.15
2022-12-31T04:31:13.800Z,42.42
2022-12-31T04:37:15.982Z,41.77
2022-12-31T04:43:18.051Z,43.38
2022-12-31T04:49:20.558Z,45.25
2022-12-31T04:55:23.028Z,40.83
2022-12-31T05:01:25.698Z,44.75
2022-12-31T05:07:28.090Z,44.80
2022-12-31T05:13:33.299Z,45.92
2022-12-31T05:19:35.947Z,45.50
2022-12-31T05:25:38.212Z,46.60
2022-12-31T05:31:40.258Z,44.58
2022-12-31T05:37:42.292Z,45.35
2022-12-31T05:43:44.491Z,45.83
2022-12-31T05:49:46.528Z,45.72
2022-12-31T05:55:49.092Z,45.58
2022-12-31T06:01:51.217Z,45.75
2022-12-31T06:07:54.598Z,46.28
2022-12-31T06:13:56.678Z,44.72
2022-12-31T06:19:59.995Z,47.03
2022-12-31T06:26:03.963Z,46.97
2022-12-31T06:32:06.505Z,47.88
2022-12-31T06:38:11.616Z,48.85
2022-12-31T06:44:15.080Z,47.93
2022-12-31T06:50:17.286Z,46.70
2022-12-31T06:56:33.183Z,48.92
2022-12-31T07:03:09.828Z,54.30
2022-12-31T07:09:24.557Z,49.42
2022-12-31T07:15:42.196Z,46.28
2022-12-31T07:21:45.098Z,50.78
2022-12-31T07:28:11.331Z,51.60
2022-12-31T07:34:51.593Z,50.00
2022-12-31T07:41:12.015Z,49.83
2022-12-31T07:47:25.630Z,48.10
2022-12-31T07:53:28.016Z,50.30
2022-12-31T07:59:53.337Z,48.97
2022-12-31T08:06:13.156Z,47.90
2022-12-31T08:12:16.174Z,47.08
2022-12-31T08:18:18.643Z,46.65
2022-12-31T08:24:30.785Z,43.95
2022-12-31T08:30:56.417Z,44.83
2022-12-31T08:37:13.808Z,42.00
2022-12-31T08:43:31.519Z,40.10
2022-12-31T08:49:35.551Z,40.42
2022-12-31T08:55:38.059Z,40.42
2022-12-31T09:02:03.172Z,41.08
2022-12-31T09:08:39.069Z,39.40
2022-12-31T09:15:19.312Z,40.72
2022-12-31T09:21:21.615Z,36.47
2022-12-31T09:27:40.921Z,38.40
2022-12-31T09:34:28.842Z,36.72
2022-12-31T09:41:01.750Z,36.80
2022-12-31T09:47:49.245Z,37.40
2022-12-31T09:54:20.399Z,41.78
2022-12-31T10:00:43.444Z,43.92
2022-12-31T10:07:02.644Z,42.80
2022-12-31T10:13:33.296Z,35.03
2022-12-31T10:19:41.615Z,35.67
2022-12-31T10:25:59.114Z,33.88
2022-12-31T10:32:18.699Z,36.40
2022-12-31T10:38:29.568Z,35.78
2022-12-31T10:44:37.967Z,35.53
2022-12-31T10:50:45.642Z,34.13
2022-12-31T10:57:11.869Z,34.45
2022-12-31T11:03:25.195Z,34.67
2022-12-31T11:09:49.019Z,35.15
2022-12-31T11:16:10.446Z,30.75
2022-12-31T11:22:40.796Z,35.30
2022-12-31T11:29:01.709Z,32.83
2022-12-31T11:35:27.014Z,35.05
2022-12-31T11:41:49.041Z,36.15
2022-12-31T11:48:32.675Z,33.33
2022-12-31T11:54:51.880Z,32.78
2022-12-31T12:01:20.138Z,30.23
2022-12-31T12:07:24.308Z,29.15
2022-12-31T12:13:28.088Z,27.15
2022-12-31T12:19:33.272Z,24.52
2022-12-31T12:25:44.131Z,26.95
2022-12-31T12:32:15.909Z,26.52
2022-12-31T12:38:23.373Z,29.23
2022-12-31T12:44:25.597Z,28.70
2022-12-31T12:50:38.668Z,31.20
2022-12-31T13:03:16.398Z,28.90
2022-12-31T13:09:29.950Z,29.17
2022-12-31T13:15:39.917Z,32.20
2022-12-31T13:21:42.848Z,36.28
2022-12-31T13:27:48.469Z,32.53
2022-12-31T13:33:59.626Z,31.77
2022-12-31T13:40:21.334Z,32.90
2022-12-31T13:46:46.504Z,31.17
2022-12-31T13:53:12.886Z,29.05
2022-12-31T13:59:22.629Z,33.50
2022-12-31T14:05:40.680Z,30.25
2022-12-31T14:12:23.447Z,31.50
2022-12-31T14:18:55.390Z,32.38
2022-12-31T14:24:59.715Z,35.30
2022-12-31T14:31:45.254Z,34.58
2022-12-31T14:37:57.218Z,36.30
2022-12-31T14:44:27.262Z,37.95
2022-12-31T14:50:31.423Z,41.45
2022-12-31T14:56:45.877Z,44.05
2022-12-31T15:02:53.629Z,50.13
2022-12-31T15:09:08.582Z,49.90
2022-12-31T15:15:38.521Z,51.97
2022-12-31T15:21:52.798Z,54.22
2022-12-31T15:27:57.164Z,49.97
2022-12-31T15:34:07.395Z,53.22
2022-12-31T15:40:15.772Z,58.10
2022-12-31T15:46:22.700Z,60.17
2022-12-31T15:53:07.929Z,67.82
2022-12-31T15:59:14.237Z,55.25
2022-12-31T16:05:27.483Z,55.83
2022-12-31T16:11:30.747Z,53.28
2022-12-31T16:17:38.825Z,57.90
2022-12-31T16:23:50.129Z,57.47
2022-12-31T16:30:02.190Z,57.25
2022-12-31T16:36:05.571Z,55.83
2022-12-31T16:42:14.501Z,78.95
2022-12-31T16:48:19.318Z,56.85
2022-12-31T16:54:29.273Z,56.38
2022-12-31T17:00:32.647Z,57.83
2022-12-31T17:06:34.727Z,57.47
2022-12-31T17:13:17.451Z,54.03
2022-12-31T17:19:05.651Z,50.30
2022-12-31T17:25:27.311Z,45.22
2022-12-31T17:31:34.151Z,53.42
2022-12-31T17:37:36.602Z,52.45
2022-12-31T17:43:40.039Z,49.65
2022-12-31T17:49:45.940Z,56.42
2022-12-31T17:55:51.292Z,63.47
2022-12-31T18:01:53.518Z,53.72
2022-12-31T18:07:56.063Z,56.75
2022-12-31T18:13:58.357Z,57.08
2022-12-31T18:20:05.209Z,56.05
2022-12-31T18:26:13.092Z,57.35
2022-12-31T18:32:30.026Z,55.72
2022-12-31T18:38:32.407Z,58.10
2022-12-31T18:44:34.351Z,58.38
2022-12-31T18:50:36.832Z,65.87
2022-12-31T18:56:44.803Z,70.78
2022-12-31T19:02:49.269Z,77.43
2022-12-31T19:08:51.877Z,53.57
2022-12-31T19:14:54.048Z,80.30
2022-12-31T19:20:56.242Z,58.40
2022-12-31T19:26:58.418Z,60.10
2022-12-31T19:33:01.073Z,58.30
2022-12-31T19:39:04.599Z,52.83
2022-12-31T19:45:07.668Z,52.17
2022-12-31T19:51:17.872Z,52.38
2022-12-31T19:57:19.863Z,48.65
2022-12-31T20:03:22.040Z,51.37
2022-12-31T20:09:24.251Z,57.20
2022-12-31T20:15:26.451Z,60.17
2022-12-31T20:21:29.169Z,56.45
2022-12-31T20:33:33.994Z,46.92
2022-12-31T20:45:41.184Z,41.00
2022-12-31T20:51:48.793Z,41.65
2022-12-31T20:57:53.933Z,42.22
2022-12-31T21:04:05.442Z,37.83
2022-12-31T21:10:11.760Z,44.40
2022-12-31T21:16:13.916Z,50.65
2022-12-31T21:22:16.081Z,38.23
2022-12-31T21:28:18.269Z,41.15
2022-12-31T21:34:20.289Z,39.77
2022-12-31T21:40:22.402Z,45.17
2022-12-31T21:46:25.991Z,47.35
2022-12-31T21:52:28.667Z,45.72
2022-12-31T21:58:30.928Z,45.30
2022-12-31T22:05:01.552Z,136.45
2022-12-31T22:10:55.358Z,115.72
2022-12-31T22:16:57.355Z,115.55
2022-12-31T22:22:59.444Z,96.53
2022-12-31T22:29:01.556Z,143.38
2022-12-31T22:35:03.778Z,204.93
2022-12-31T22:41:17.819Z,235.98
2022-12-31T22:47:19.931Z,248.57
2022-12-31T22:53:21.997Z,221.87
2022-12-31T22:59:24.728Z,176.27
2022-12-31T23:05:26.802Z,127.95
2022-12-31T23:11:29.488Z,111.07
2022-12-31T23:17:50.291Z,116.55
2022-12-31T23:23:53.925Z,109.15
2022-12-31T23:29:56.025Z,103.93
2022-12-31T23:36:05.672Z,96.60
2022-12-31T23:42:08.175Z,77.47
2022-12-31T23:48:10.301Z,70.65
2022-12-31T23:54:13.123Z,57.03
